Time;durP1;ratioP1;P1;durP2;ratioP2;P2;SDS_P1;SDS_P2;PMS_P1;PMS_P2;Temp;Humidity;BMP_temperature;BMP_pressure;BME280_temperature;BME280_humidity;BME280_pressure;Samples;Min_cycle;Max_cycle;Signal;HPM_P1;HPM_P2
2023/09/19 00:01:35;;;;;;;2.58;1.17;;;25.00;49.30;;;;;;5040320;28;20021;-51
2023/09/19 00:04:02;;;;;;;2.83;1.23;;;24.90;49.20;;;;;;5014536;28;20341;-50
2023/09/19 00:06:31;;;;;;;2.17;1.02;;;24.90;49.10;;;;;;5027329;28;20033;-56
2023/09/19 00:09:00;;;;;;;2.22;0.88;;;24.90;49.10;;;;;;5033186;28;20053;-49
2023/09/19 00:11:26;;;;;;;1.92;0.85;;;24.90;49.00;;;;;;5030329;28;20029;-48
2023/09/19 00:13:53;;;;;;;1.08;0.63;;;24.90;49.00;;;;;;5038937;28;20302;-52
2023/09/19 00:16:19;;;;;;;2.63;1.00;;;24.90;49.00;;;;;;5033413;28;20043;-52
2023/09/19 00:18:45;;;;;;;2.00;0.90;;;24.90;49.00;;;;;;5031342;28;20017;-48
2023/09/19 00:21:11;;;;;;;2.33;0.80;;;24.90;49.00;;;;;;5029793;28;20017;-52
2023/09/19 00:23:38;;;;;;;1.42;0.70;;;24.90;49.00;;;;;;5027348;28;20133;-50
2023/09/19 00:26:04;;;;;;;2.13;1.05;;;24.90;49.00;;;;;;5032589;28;20101;-50
2023/09/19 00:28:31;;;;;;;2.42;0.90;;;24.90;49.00;;;;;;5012488;28;20021;-52
2023/09/19 00:31:01;;;;;;;2.80;1.17;;;24.90;49.00;;;;;;5029308;28;20416;-51
2023/09/19 00:33:29;;;;;;;1.45;0.77;;;24.90;49.10;;;;;;5012452;28;20357;-54
2023/09/19 00:35:57;;;;;;;2.10;0.95;;;24.90;49.10;;;;;;5015520;28;20105;-52
2023/09/19 00:38:26;;;;;;;2.55;1.02;;;24.80;49.10;;;;;;5030084;28;20025;-50
2023/09/19 00:40:54;;;;;;;2.58;0.70;;;24.80;49.10;;;;;;5031747;28;20322;-54
2023/09/19 00:43:22;;;;;;;2.95;0.73;;;24.80;49.20;;;;;;5009938;28;20037;-50
2023/09/19 00:45:51;;;;;;;2.03;0.80;;;24.80;49.30;;;;;;5025273;28;20049;-49
2023/09/19 00:48:18;;;;;;;2.40;0.80;;;24.80;49.30;;;;;;5015155;28;20056;-55
2023/09/19 00:50:47;;;;;;;3.30;0.80;;;24.80;49.40;;;;;;5022395;28;20082;-53
2023/09/19 00:53:18;;;;;;;3.38;1.02;;;24.80;49.50;;;;;;4999853;28;20037;-53
2023/09/19 00:55:45;;;;;;;3.00;1.10;;;24.80;49.50;;;;;;5029589;28;20025;-53
2023/09/19 00:58:12;;;;;;;3.30;1.17;;;24.80;50.20;;;;;;5013804;28;20053;-55
2023/09/19 01:00:38;;;;;;;2.53;0.90;;;24.80;49.60;;;;;;4996387;28;20093;-53
2023/09/19 01:03:06;;;;;;;3.17;1.30;;;24.80;49.60;;;;;;5013746;28;20047;-55
2023/09/19 01:05:34;;;;;;;3.22;1.17;;;24.70;49.60;;;;;;5030524;28;20456;-50
2023/09/19 01:08:00;;;;;;;2.03;0.85;;;24.70;49.60;;;;;;5032557;28;20101;-52
2023/09/19 01:10:26;;;;;;;2.45;1.00;;;24.70;49.60;;;;;;5034711;28;20079;-54
2023/09/19 01:13:08;;;;;;;2.47;0.90;;;24.80;49.80;;;;;;5013716;28;20017;-52
2023/09/19 01:15:49;;;;;;;2.80;0.90;;;24.70;49.70;;;;;;5008511;28;20030;-53
2023/09/19 01:18:43;;;;;;;2.58;1.13;;;24.70;49.70;;;;;;5035156;28;20100;-54
2023/09/19 01:21:19;;;;;;;;;;;24.70;49.70;;;;;;5033550;28;20112;-54
2023/09/19 01:24:04;;;;;;;1.60;0.82;;;24.70;49.90;;;;;;5000805;28;20000;-51
2023/09/19 01:26:52;;;;;;;2.10;1.00;;;24.70;49.90;;;;;;5030887;28;20120;-55
2023/09/19 01:29:34;;;;;;;2.58;1.00;;;24.70;49.90;;;;;;5031992;28;20056;-49
2023/09/19 01:32:05;;;;;;;2.28;0.98;;;24.70;50.50;;;;;;5034299;28;20361;-50
2023/09/19 01:34:48;;;;;;;2.67;0.95;;;24.70;49.90;;;;;;5018465;28;20026;-56
2023/09/19 01:37:19;;;;;;;3.05;1.08;;;24.70;49.90;;;;;;5030431;28;20046;-54
2023/09/19 01:39:48;;;;;;;3.42;1.20;;;24.60;49.90;;;;;;5033903;28;20033;-56
2023/09/19 01:42:30;;;;;;;2.35;0.90;;;24.60;49.90;;;;;;5033196;28;20077;-53
2023/09/19 01:45:23;;;;;;;3.47;1.30;;;24.60;49.90;;;;;;5030416;28;20034;-55
2023/09/19 01:47:56;;;;;;;2.88;1.23;;;24.70;50.00;;;;;;5016498;28;20054;-53
2023/09/19 01:50:53;;;;;;;3.13;1.10;;;24.60;50.00;;;;;;5014153;28;20033;-47
2023/09/19 01:54:02;;;;;;;2.83;1.15;;;24.60;49.90;;;;;;5028978;28;20032;-54
2023/09/19 01:56:35;;;;;;;3.92;1.05;;;24.60;49.90;;;;;;5036457;28;20057;-53
2023/09/19 01:59:10;;;;;;;3.50;1.00;;;24.60;49.90;;;;;;5008493;28;20328;-49
2023/09/19 02:01:37;;;;;;;;;;;24.60;49.90;;;;;;4999393;28;20029;-54
2023/09/19 02:04:04;;;;;;;2.50;1.20;;;24.60;49.90;;;;;;5038977;28;19986;-53
2023/09/19 02:06:33;;;;;;;3.10;1.10;;;24.60;49.80;;;;;;5012330;28;20038;-54
2023/09/19 02:09:00;;;;;;;2.83;1.00;;;24.60;49.70;;;;;;5042117;28;20037;-52
2023/09/19 02:11:26;;;;;;;4.47;1.58;;;24.60;49.70;;;;;;5035234;28;20029;-51
2023/09/19 02:13:54;;;;;;;2.50;1.13;;;24.60;49.70;;;;;;5018622;28;20035;-52
2023/09/19 02:16:20;;;;;;;3.42;1.42;;;24.60;49.60;;;;;;5017542;28;20044;-54
2023/09/19 02:18:49;;;;;;;2.90;0.95;;;24.60;49.60;;;;;;5030386;28;20026;-53
2023/09/19 02:21:16;;;;;;;2.25;1.20;;;24.60;49.50;;;;;;5034717;28;20062;-48
2023/09/19 02:23:44;;;;;;;4.28;1.35;;;24.60;49.40;;;;;;5008465;28;20048;-50
2023/09/19 02:26:12;;;;;;;3.42;1.10;;;24.60;49.30;;;;;;5013753;28;20045;-51
2023/09/19 02:28:38;;;;;;;2.20;1.08;;;24.60;49.30;;;;;;5031086;28;20026;-53
2023/09/19 02:31:07;;;;;;;5.85;1.55;;;24.60;49.30;;;;;;5032514;28;20136;-54
2023/09/19 02:33:33;;;;;;;3.92;1.30;;;24.60;49.20;;;;;;5012260;28;20135;-53
2023/09/19 02:36:00;;;;;;;3.00;1.20;;;24.60;49.10;;;;;;5013719;28;20037;-55
2023/09/19 02:38:27;;;;;;;2.90;1.10;;;24.60;49.00;;;;;;5017690;28;20468;-53
2023/09/19 02:40:55;;;;;;;3.00;1.13;;;24.50;48.90;;;;;;5032104;28;20048;-50
2023/09/19 02:43:21;;;;;;;3.10;1.27;;;24.50;48.90;;;;;;5010651;28;20061;-49
2023/09/19 02:45:53;;;;;;;2.28;1.00;;;24.50;48.80;;;;;;5012417;28;20042;-53
2023/09/19 02:48:19;;;;;;;3.20;1.10;;;24.50;48.70;;;;;;5033329;28;20069;-54
2023/09/19 02:50:49;;;;;;;3.28;1.40;;;24.50;48.60;;;;;;5013501;28;20112;-54
2023/09/19 02:53:14;;;;;;;3.88;1.33;;;24.50;48.60;;;;;;5023180;28;20041;-50
2023/09/19 02:55:40;;;;;;;3.70;1.42;;;24.50;48.50;;;;;;5012484;28;20122;-51
2023/09/19 02:58:14;;;;;;;2.50;1.17;;;24.50;48.50;;;;;;5029867;28;20033;-53
2023/09/19 03:00:47;;;;;;;3.40;1.38;;;24.50;48.40;;;;;;5012126;28;20036;-55
2023/09/19 03:03:15;;;;;;;4.68;2.10;;;24.50;48.30;;;;;;5032790;28;20189;-49
2023/09/19 03:05:46;;;;;;;3.47;1.50;;;24.50;48.80;;;;;;5033547;28;20061;-51
2023/09/19 03:08:16;;;;;;;2.35;1.00;;;24.40;48.10;;;;;;5013721;28;20037;-51
2023/09/19 03:10:45;;;;;;;2.80;1.10;;;24.40;48.10;;;;;;5013287;28;20060;-59
2023/09/19 03:13:12;;;;;;;3.50;1.20;;;24.50;48.40;;;;;;5043160;28;20348;-56
2023/09/19 03:15:43;;;;;;;3.42;1.23;;;24.50;48.10;;;;;;5014710;28;20160;-52
2023/09/19 03:18:10;;;;;;;2.92;1.27;;;24.50;48.00;;;;;;5015692;28;20016;-53
2023/09/19 03:20:36;;;;;;;3.50;1.45;;;24.40;47.90;;;;;;5032736;28;20029;-52
2023/09/19 03:23:04;;;;;;;3.08;1.15;;;24.40;47.80;;;;;;5032865;28;20035;-56
2023/09/19 03:25:29;;;;;;;2.70;1.08;;;24.40;47.80;;;;;;5022381;28;20493;-53
2023/09/19 03:27:58;;;;;;;3.40;1.50;;;24.40;47.80;;;;;;5012404;28;20169;-56
2023/09/19 03:30:24;;;;;;;3.63;1.38;;;24.40;47.70;;;;;;5000010;28;20507;-55
2023/09/19 03:32:50;;;;;;;2.83;1.15;;;24.40;47.70;;;;;;5017387;28;20120;-52
2023/09/19 03:35:17;;;;;;;3.15;0.98;;;24.40;47.60;;;;;;5016316;28;20427;-53
2023/09/19 03:37:43;;;;;;;2.92;1.30;;;24.40;47.50;;;;;;5012703;28;20014;-54
2023/09/19 03:40:11;;;;;;;2.08;1.08;;;24.40;47.40;;;;;;5011768;28;20045;-52
2023/09/19 03:42:41;;;;;;;2.53;0.98;;;24.40;47.40;;;;;;5013021;28;20025;-55
2023/09/19 03:45:14;;;;;;;3.92;1.33;;;24.40;47.40;;;;;;5001960;28;20044;-50
2023/09/19 03:47:46;;;;;;;3.00;0.82;;;24.40;47.30;;;;;;5015743;28;20873;-55
2023/09/19 03:50:17;;;;;;;2.72;1.13;;;24.40;47.20;;;;;;5013454;28;20021;-52
2023/09/19 03:52:44;;;;;;;3.13;1.20;;;24.30;47.10;;;;;;5021526;28;20033;-48
2023/09/19 03:55:10;;;;;;;1.80;0.90;;;24.30;47.00;;;;;;5017569;28;20029;-50
2023/09/19 03:57:38;;;;;;;3.00;1.13;;;24.30;47.00;;;;;;5010787;28;20452;-54
2023/09/19 04:00:11;;;;;;;3.08;1.02;;;24.30;46.90;;;;;;5015176;28;20361;-52
2023/09/19 04:02:39;;;;;;;4.18;1.38;;;24.30;46.80;;;;;;5030146;28;20084;-54
2023/09/19 04:05:06;;;;;;;4.05;1.25;;;24.30;46.80;;;;;;4994607;28;20030;-47
2023/09/19 04:07:32;;;;;;;3.30;1.13;;;24.30;46.70;;;;;;5031075;28;20459;-54
2023/09/19 04:09:57;;;;;;;2.95;1.30;;;24.30;46.70;;;;;;5012686;28;20157;-56
2023/09/19 04:12:23;;;;;;;3.80;1.38;;;24.30;46.60;;;;;;5013598;28;20116;-53
2023/09/19 04:14:50;;;;;;;3.25;1.40;;;24.30;46.50;;;;;;5013969;28;20033;-53
2023/09/19 04:17:16;;;;;;;3.83;1.40;;;24.30;46.40;;;;;;5012191;28;20034;-55
2023/09/19 04:19:42;;;;;;;2.40;1.17;;;24.30;46.40;;;;;;5014779;28;20083;-51
2023/09/19 04:22:09;;;;;;;3.20;1.23;;;24.30;46.40;;;;;;5029979;28;20026;-47
2023/09/19 04:24:35;;;;;;;3.78;1.30;;;24.30;46.30;;;;;;5012514;28;20389;-49
2023/09/19 04:27:01;;;;;;;3.15;1.20;;;24.20;46.20;;;;;;5035660;28;20025;-54
2023/09/19 04:29:29;;;;;;;4.43;1.30;;;24.20;46.10;;;;;;5011989;28;20041;-52
2023/09/19 04:31:56;;;;;;;2.70;1.25;;;24.20;46.10;;;;;;5010898;28;20418;-55
2023/09/19 04:34:23;;;;;;;2.70;1.13;;;24.20;46.10;;;;;;5026543;28;20037;-57
2023/09/19 04:36:49;;;;;;;4.13;1.20;;;24.20;46.00;;;;;;5031297;28;20056;-55
2023/09/19 04:39:16;;;;;;;3.47;1.52;;;24.20;46.00;;;;;;5031817;28;20076;-55
2023/09/19 04:41:42;;;;;;;3.05;1.27;;;24.20;45.90;;;;;;5014041;28;20148;-55
2023/09/19 04:44:08;;;;;;;3.00;1.02;;;24.20;45.90;;;;;;5028745;28;20025;-52
2023/09/19 04:46:35;;;;;;;3.30;1.20;;;24.20;45.80;;;;;;5027336;28;20061;-56
2023/09/19 04:49:01;;;;;;;3.45;1.40;;;24.20;45.80;;;;;;5034449;28;20136;-57
2023/09/19 04:51:30;;;;;;;4.88;1.20;;;24.20;45.70;;;;;;5032804;28;20113;-56
2023/09/19 04:53:56;;;;;;;3.47;1.27;;;24.20;45.70;;;;;;5036595;28;20025;-57
2023/09/19 04:56:23;;;;;;;2.42;1.10;;;24.20;45.60;;;;;;5034601;28;20459;-56
2023/09/19 04:58:49;;;;;;;2.80;1.30;;;24.20;45.60;;;;;;5032291;28;20033;-51
2023/09/19 05:01:15;;;;;;;3.63;1.50;;;24.20;45.60;;;;;;5033076;28;20040;-53
2023/09/19 05:03:45;;;;;;;4.97;1.50;;;24.20;45.60;;;;;;5036786;28;20112;-53
2023/09/19 05:06:10;;;;;;;3.22;1.20;;;24.10;45.50;;;;;;5036075;28;20033;-53
2023/09/19 05:08:36;;;;;;;2.72;1.05;;;24.10;46.10;;;;;;5035769;28;20059;-56
2023/09/19 05:11:02;;;;;;;3.17;1.30;;;24.10;45.40;;;;;;5016784;28;20207;-55
2023/09/19 05:13:28;;;;;;;3.13;1.10;;;24.20;45.50;;;;;;5029344;28;20040;-54
2023/09/19 05:15:54;;;;;;;2.17;1.10;;;24.10;45.40;;;;;;5035794;28;20025;-53
2023/09/19 05:18:21;;;;;;;3.20;1.17;;;24.10;45.40;;;;;;5032021;28;20030;-55
2023/09/19 05:20:49;;;;;;;3.05;1.10;;;24.10;45.40;;;;;;5032147;28;20037;-56
2023/09/19 05:23:15;;;;;;;3.67;1.40;;;24.10;45.40;;;;;;5033715;28;20026;-48
2023/09/19 05:25:43;;;;;;;2.45;1.30;;;24.10;45.40;;;;;;5035899;28;20510;-54
2023/09/19 05:28:14;;;;;;;2.63;1.13;;;24.10;45.40;;;;;;5032219;28;20041;-54
2023/09/19 05:30:42;;;;;;;2.55;1.33;;;24.10;45.30;;;;;;5012239;28;20033;-54
2023/09/19 05:33:09;;;;;;;4.00;1.20;;;24.10;45.30;;;;;;5031672;28;20495;-50
2023/09/19 05:35:39;;;;;;;2.65;1.20;;;24.10;45.30;;;;;;5037896;28;20017;-52
2023/09/19 05:38:08;;;;;;;2.65;1.20;;;24.10;45.40;;;;;;5038451;28;20365;-51
2023/09/19 05:40:35;;;;;;;2.70;1.10;;;24.10;45.30;;;;;;5018526;28;20349;-51
2023/09/19 05:43:03;;;;;;;2.45;1.30;;;24.10;45.30;;;;;;5030494;28;20029;-54
2023/09/19 05:45:30;;;;;;;2.28;1.05;;;24.10;45.30;;;;;;5027816;28;20052;-55
2023/09/19 05:48:04;;;;;;;3.45;1.23;;;24.10;45.30;;;;;;5015970;28;20079;-57
2023/09/19 05:50:32;;;;;;;2.00;0.93;;;24.00;45.30;;;;;;5034130;28;20073;-54
2023/09/19 05:52:58;;;;;;;2.45;1.02;;;24.10;45.40;;;;;;5032385;28;20480;-56
2023/09/19 05:55:24;;;;;;;2.92;1.40;;;24.00;45.30;;;;;;5029630;28;20176;-53
2023/09/19 05:57:51;;;;;;;3.13;1.20;;;24.10;45.40;;;;;;5029254;28;20040;-51
2023/09/19 06:00:23;;;;;;;3.72;1.23;;;24.00;45.30;;;;;;5034127;28;20069;-55
2023/09/19 06:02:57;;;;;;;4.43;1.38;;;24.10;45.40;;;;;;5038595;28;20074;-55
2023/09/19 06:05:26;;;;;;;2.65;1.10;;;24.00;45.40;;;;;;5035072;28;20033;-50
2023/09/19 06:07:53;;;;;;;2.70;1.08;;;24.00;45.40;;;;;;5034501;28;20037;-55
2023/09/19 06:10:23;;;;;;;3.67;1.38;;;24.00;45.40;;;;;;5036482;28;20033;-52
2023/09/19 06:12:49;;;;;;;3.15;1.30;;;24.00;45.40;;;;;;5035478;28;20053;-50
2023/09/19 06:15:18;;;;;;;4.30;1.08;;;24.00;45.40;;;;;;5012682;28;20109;-47
2023/09/19 06:17:48;;;;;;;4.82;1.38;;;24.00;45.50;;;;;;5030830;28;20091;-49
2023/09/19 06:20:15;;;;;;;3.40;1.15;;;24.10;45.50;;;;;;5042973;28;20416;-51
2023/09/19 06:22:42;;;;;;;3.40;1.25;;;24.00;45.50;;;;;;5038343;28;20194;-55
2023/09/19 06:25:18;;;;;;;3.55;1.17;;;24.00;45.60;;;;;;5032997;28;20404;-50
2023/09/19 06:27:45;;;;;;;3.50;1.10;;;24.00;46.20;;;;;;5043536;28;20025;-46
2023/09/19 06:30:12;;;;;;;2.70;1.10;;;24.10;45.70;;;;;;5041521;28;20037;-52
2023/09/19 06:32:38;;;;;;;2.92;1.20;;;24.00;45.60;;;;;;5028941;28;20333;-48
2023/09/19 06:35:08;;;;;;;1.88;1.20;;;24.00;45.70;;;;;;5035371;28;20120;-49
2023/09/19 06:37:35;;;;;;;2.13;0.85;;;24.00;45.70;;;;;;5038656;28;20028;-49
2023/09/19 06:40:01;;;;;;;3.50;1.15;;;24.00;45.70;;;;;;5043370;28;20091;-54
2023/09/19 06:42:28;;;;;;;2.58;1.15;;;24.00;45.80;;;;;;5023778;28;20429;-55
2023/09/19 06:44:54;;;;;;;2.97;1.10;;;24.00;45.90;;;;;;5020665;28;20033;-48
2023/09/19 06:47:20;;;;;;;2.55;1.00;;;24.00;45.90;;;;;;5043102;28;20093;-53
2023/09/19 06:49:46;;;;;;;3.42;1.38;;;24.00;45.90;;;;;;5042520;28;20336;-54
2023/09/19 06:52:12;;;;;;;3.35;1.10;;;24.00;45.90;;;;;;5041980;28;20040;-54
2023/09/19 06:54:39;;;;;;;2.25;1.13;;;24.00;46.60;;;;;;5042928;28;20029;-51
2023/09/19 06:57:05;;;;;;;2.28;1.00;;;24.10;46.10;;;;;;5044963;28;20033;-54
2023/09/19 06:59:32;;;;;;;3.90;1.15;;;24.10;46.10;;;;;;5032466;28;20344;-56
2023/09/19 07:01:59;;;;;;;3.95;1.30;;;24.10;46.10;;;;;;5030506;28;20416;-50
2023/09/19 07:04:25;;;;;;;3.42;1.17;;;24.10;46.20;;;;;;5031417;28;20053;-52
2023/09/19 07:06:51;;;;;;;4.35;1.50;;;24.10;46.20;;;;;;5032527;28;20483;-52
2023/09/19 07:09:19;;;;;;;3.65;1.40;;;24.10;46.30;;;;;;5031927;28;20140;-52
2023/09/19 07:11:45;;;;;;;2.72;1.08;;;24.10;46.30;;;;;;5044740;28;20017;-53
2023/09/19 07:14:11;;;;;;;1.98;1.02;;;24.10;46.30;;;;;;5044367;28;20045;-54
2023/09/19 07:16:39;;;;;;;5.05;1.27;;;24.10;46.40;;;;;;5037958;28;20689;-54
2023/09/19 07:19:05;;;;;;;3.92;1.40;;;24.10;46.40;;;;;;5032609;28;20021;-50
2023/09/19 07:21:32;;;;;;;3.92;1.58;;;24.10;46.40;;;;;;5036736;28;20094;-55
2023/09/19 07:24:00;;;;;;;3.30;1.13;;;24.10;46.40;;;;;;5043437;28;20413;-55
2023/09/19 07:26:27;;;;;;;2.70;1.10;;;24.10;46.40;;;;;;5023368;28;20113;-53
2023/09/19 07:28:54;;;;;;;3.40;1.20;;;24.10;46.50;;;;;;5043289;28;20057;-52
2023/09/19 07:31:22;;;;;;;4.05;1.50;;;24.10;46.50;;;;;;5040040;28;20076;-56
2023/09/19 07:33:49;;;;;;;2.55;1.08;;;24.10;46.50;;;;;;5039366;28;20094;-51
2023/09/19 07:36:16;;;;;;;2.95;1.20;;;24.10;46.50;;;;;;5021002;28;20032;-56
2023/09/19 07:38:42;;;;;;;3.15;1.30;;;24.10;46.50;;;;;;5044718;28;20025;-55
2023/09/19 07:41:09;;;;;;;2.75;1.33;;;24.10;46.60;;;;;;5038586;28;20029;-53
2023/09/19 07:43:36;;;;;;;3.75;1.38;;;24.10;46.60;;;;;;5041384;28;20016;-51
2023/09/19 07:46:07;;;;;;;2.85;1.20;;;24.10;46.60;;;;;;5040331;28;20147;-52
2023/09/19 07:48:34;;;;;;;3.75;1.20;;;24.10;46.60;;;;;;5042259;28;20052;-54
2023/09/19 07:51:04;;;;;;;4.05;1.30;;;24.10;46.60;;;;;;5040414;28;20029;-56
2023/09/19 07:53:30;;;;;;;3.97;1.30;;;24.20;46.70;;;;;;5041193;28;20356;-54
2023/09/19 07:56:04;;;;;;;4.72;1.92;;;24.20;46.70;;;;;;5029568;28;20045;-55
2023/09/19 07:58:30;;;;;;;3.03;1.25;;;24.10;46.70;;;;;;5031350;28;20057;-54
2023/09/19 08:00:56;;;;;;;3.17;1.20;;;24.20;46.80;;;;;;5030948;28;20064;-55
2023/09/19 08:03:22;;;;;;;4.13;1.23;;;24.20;46.70;;;;;;5030946;28;20098;-49
2023/09/19 08:05:48;;;;;;;3.83;1.35;;;24.20;46.80;;;;;;5029765;28;20453;-51
2023/09/19 08:08:14;;;;;;;3.00;1.05;;;24.20;46.80;;;;;;5034009;28;20026;-53
2023/09/19 08:10:42;;;;;;;3.60;1.23;;;24.20;46.80;;;;;;5039365;28;20482;-54
2023/09/19 08:13:14;;;;;;;3.10;1.15;;;24.20;46.80;;;;;;5043737;28;20108;-55
2023/09/19 08:15:44;;;;;;;2.70;1.30;;;24.20;46.90;;;;;;5027037;28;20028;-54
2023/09/19 08:18:11;;;;;;;3.05;1.10;;;24.20;46.90;;;;;;5037374;28;20052;-54
2023/09/19 08:20:38;;;;;;;4.65;1.25;;;24.20;46.90;;;;;;5045184;28;20029;-50
2023/09/19 08:23:04;;;;;;;4.43;1.52;;;24.20;46.90;;;;;;5026658;28;20097;-54
2023/09/19 08:25:30;;;;;;;3.85;1.50;;;24.20;46.90;;;;;;5026017;28;20041;-52
2023/09/19 08:27:58;;;;;;;3.42;1.27;;;24.20;46.90;;;;;;5038209;28;20025;-53
2023/09/19 08:30:27;;;;;;;3.72;1.50;;;24.20;46.90;;;;;;5044733;28;20025;-53
2023/09/19 08:33:04;;;;;;;4.68;1.58;;;24.20;46.90;;;;;;5046568;28;20030;-50
2023/09/19 08:35:30;;;;;;;4.43;1.40;;;24.20;46.90;;;;;;5049091;28;20173;-54
2023/09/19 08:37:56;;;;;;;3.28;1.30;;;24.20;46.90;;;;;;5041302;28;20082;-54
2023/09/19 08:40:22;;;;;;;4.05;1.25;;;24.20;46.90;;;;;;5041690;28;20021;-51
2023/09/19 08:42:53;;;;;;;4.32;1.38;;;24.20;46.90;;;;;;5046654;28;20052;-51
2023/09/19 08:45:23;;;;;;;3.65;1.33;;;24.20;46.90;;;;;;5029598;28;20166;-53
2023/09/19 08:48:17;;;;;;;2.95;1.10;;;24.30;47.00;;;;;;5041772;28;20418;-56
2023/09/19 08:50:59;;;;;;;3.85;1.25;;;24.30;47.00;;;;;;5049399;28;20036;-54
2023/09/19 08:53:39;;;;;;;3.55;1.40;;;24.30;47.00;;;;;;5040995;28;20025;-53
2023/09/19 08:56:08;;;;;;;3.83;1.55;;;24.30;47.00;;;;;;5048548;28;20037;-48
2023/09/19 08:59:07;;;;;;;3.78;1.45;;;24.30;47.00;;;;;;5031083;28;20448;-52
2023/09/19 09:01:34;;;;;;;3.20;1.15;;;24.30;47.00;;;;;;5046335;28;20436;-53
2023/09/19 09:04:02;;;;;;;3.85;1.30;;;24.30;47.10;;;;;;5046089;28;20060;-55
2023/09/19 09:06:29;;;;;;;4.30;1.77;;;24.30;47.10;;;;;;5025244;28;20135;-57
2023/09/19 09:08:55;;;;;;;2.97;1.13;;;24.30;47.10;;;;;;5018091;28;20156;-52
2023/09/19 09:11:23;;;;;;;6.25;1.48;;;24.30;47.00;;;;;;5046168;28;20069;-50
2023/09/19 09:13:49;;;;;;;2.63;1.10;;;24.30;47.10;;;;;;5048490;28;20134;-54
2023/09/19 09:16:18;;;;;;;3.30;1.27;;;24.30;47.10;;;;;;5046294;28;20422;-57
2023/09/19 09:18:45;;;;;;;3.85;1.30;;;24.30;47.00;;;;;;5038407;28;20030;-55
2023/09/19 09:21:15;;;;;;;4.00;1.33;;;24.30;47.00;;;;;;5046867;28;20044;-58
2023/09/19 09:23:41;;;;;;;3.30;1.20;;;24.30;47.00;;;;;;5042128;28;20120;-53
2023/09/19 09:26:09;;;;;;;3.78;1.35;;;24.40;47.00;;;;;;5040701;28;20487;-52
2023/09/19 09:28:37;;;;;;;2.00;1.13;;;24.40;47.00;;;;;;5046701;28;20021;-54
2023/09/19 09:31:07;;;;;;;2.85;1.30;;;24.30;46.90;;;;;;5030784;28;20116;-57
2023/09/19 09:33:34;;;;;;;3.38;1.48;;;24.40;47.00;;;;;;5042092;28;20033;-55
2023/09/19 09:36:03;;;;;;;2.85;1.10;;;24.40;46.90;;;;;;5047567;28;20177;-54
2023/09/19 09:38:43;;;;;;;4.60;1.35;;;24.40;46.90;;;;;;5042699;28;20478;-54
2023/09/19 09:41:09;;;;;;;3.72;1.27;;;24.40;46.80;;;;;;5027737;28;20029;-51
2023/09/19 09:43:38;;;;;;;3.80;1.20;;;24.40;46.80;;;;;;5045298;28;20466;-56
2023/09/19 09:49:26;;;;;;;1.92;0.93;;;24.40;46.70;;;;;;5044722;28;20438;-51
2023/09/19 09:52:16;;;;;;;3.72;1.45;;;24.40;46.70;;;;;;5042720;28;20037;-55
2023/09/19 09:55:05;;;;;;;3.70;1.50;;;24.40;46.60;;;;;;5042835;28;20041;-53
2023/09/19 09:57:31;;;;;;;3.33;1.33;;;24.40;46.50;;;;;;5040655;28;20042;-52
2023/09/19 10:00:09;;;;;;;2.42;1.23;;;24.40;46.60;;;;;;5048110;28;20037;-55
2023/09/19 10:02:41;;;;;;;3.60;1.00;;;24.40;46.50;;;;;;5041955;28;20449;-51
2023/09/19 10:07:51;;;;;;;4.53;1.50;;;24.50;46.50;;;;;;5037058;28;20025;-54
2023/09/19 10:10:43;;;;;;;3.90;1.20;;;24.50;46.50;;;;;;5028030;28;20028;-50
2023/09/19 10:13:17;;;;;;;2.65;1.25;;;24.50;46.40;;;;;;5044795;28;20048;-56
2023/09/19 10:15:48;;;;;;;3.60;1.20;;;24.50;46.40;;;;;;5041495;28;20429;-50
2023/09/19 10:18:18;;;;;;;3.17;1.00;;;24.50;46.40;;;;;;5014486;28;20073;-52
2023/09/19 10:20:45;;;;;;;3.17;1.42;;;24.60;46.40;;;;;;5042944;28;20115;-52
2023/09/19 10:23:13;;;;;;;3.38;1.30;;;24.50;46.40;;;;;;5045234;28;20452;-56
2023/09/19 10:25:46;;;;;;;3.60;1.30;;;24.50;46.30;;;;;;5035344;28;20041;-53
2023/09/19 10:28:14;;;;;;;4.03;1.40;;;24.60;46.30;;;;;;5042609;28;20057;-49
2023/09/19 10:30:47;;;;;;;3.70;1.17;;;24.60;46.30;;;;;;5042226;28;20408;-56
2023/09/19 10:33:29;;;;;;;2.22;1.23;;;24.60;46.30;;;;;;5037668;28;20029;-52
2023/09/19 10:35:59;;;;;;;2.38;1.10;;;24.60;46.40;;;;;;5033669;28;20037;-51
2023/09/19 10:38:28;;;;;;;3.15;1.45;;;24.60;46.40;;;;;;5030499;28;20058;-46
2023/09/19 10:41:00;;;;;;;3.33;1.08;;;24.60;46.50;;;;;;5031261;28;20384;-52
2023/09/19 10:43:31;;;;;;;2.88;1.13;;;24.70;46.50;;;;;;5029073;28;20030;-51
2023/09/19 10:46:03;;;;;;;3.50;1.38;;;24.80;46.50;;;;;;5010159;28;20293;-50
2023/09/19 10:48:31;;;;;;;3.25;1.48;;;24.90;46.50;;;;;;5012223;28;20081;-51
2023/09/19 10:51:04;;;;;;;7.10;1.17;;;24.90;46.40;;;;;;5018635;28;20033;-56
2023/09/19 10:53:47;;;;;;;3.65;1.42;;;25.00;46.30;;;;;;5031909;28;20425;-53
2023/09/19 10:56:27;;;;;;;3.63;1.40;;;25.10;46.20;;;;;;5037929;28;20032;-55
2023/09/19 10:59:07;;;;;;;3.60;1.30;;;25.10;46.10;;;;;;5037027;28;20064;-52
2023/09/19 11:02:01;;;;;;;3.80;1.20;;;25.20;46.00;;;;;;5042211;28;20439;-55
2023/09/19 11:04:36;;;;;;;3.90;1.15;;;25.30;46.00;;;;;;5033718;28;20128;-51
2023/09/19 11:07:15;;;;;;;3.30;1.35;;;25.40;46.00;;;;;;5022805;28;20044;-50
2023/09/19 11:10:01;;;;;;;2.40;1.17;;;25.40;45.80;;;;;;5031110;28;20037;-54
2023/09/19 11:12:52;;;;;;;2.33;1.20;;;25.50;45.90;;;;;;5044944;28;20068;-55
2023/09/19 11:15:54;;;;;;;3.28;1.08;;;25.50;45.70;;;;;;5036383;28;20068;-54
2023/09/19 11:18:42;;;;;;;3.58;1.05;;;25.60;45.60;;;;;;5031948;28;20036;-53
2023/09/19 11:21:30;;;;;;;4.93;1.13;;;25.60;45.50;;;;;;5039273;28;20032;-55
2023/09/19 11:24:24;;;;;;;4.60;1.33;;;25.70;45.50;;;;;;5041713;28;20045;-56
2023/09/19 11:26:52;;;;;;;4.28;1.17;;;25.70;45.40;;;;;;5036569;28;20058;-50
2023/09/19 11:29:25;;;;;;;3.33;1.20;;;25.70;45.40;;;;;;5033715;28;20058;-53
2023/09/19 11:31:51;;;;;;;3.23;1.00;;;25.80;45.40;;;;;;5043431;28;20112;-53
2023/09/19 11:34:47;;;;;;;2.47;1.45;;;25.80;45.30;;;;;;5036214;28;20037;-49
2023/09/19 11:37:15;;;;;;;2.78;1.10;;;25.80;45.20;;;;;;5040373;28;20119;-54
2023/09/19 11:40:16;;;;;;;3.60;1.40;;;25.90;45.20;;;;;;5036105;28;20029;-53
2023/09/19 11:42:57;;;;;;;3.08;1.40;;;25.90;45.20;;;;;;5023468;28;20444;-55
2023/09/19 11:45:46;;;;;;;3.75;1.20;;;25.90;45.20;;;;;;5032055;28;20036;-52
2023/09/19 11:48:18;;;;;;;2.03;0.90;;;26.00;45.20;;;;;;5042134;28;20051;-53
2023/09/19 11:50:47;;;;;;;2.80;1.10;;;26.00;45.10;;;;;;5037359;28;20025;-53
2023/09/19 11:53:16;;;;;;;2.22;1.10;;;26.00;45.00;;;;;;5043100;28;20021;-54
2023/09/19 11:55:43;;;;;;;2.88;1.25;;;26.10;45.00;;;;;;5022843;28;20017;-53
2023/09/19 11:58:09;;;;;;;2.30;1.10;;;26.10;45.00;;;;;;5030758;28;20357;-53
2023/09/19 12:00:43;;;;;;;3.15;1.10;;;26.10;44.90;;;;;;5043040;28;20025;-53
2023/09/19 12:03:12;;;;;;;4.30;1.42;;;26.20;44.80;;;;;;5040691;28;20793;-56
2023/09/19 12:05:39;;;;;;;4.07;1.27;;;26.20;44.70;;;;;;5034545;28;20147;-56
2023/09/19 12:08:08;;;;;;;2.47;0.98;;;26.20;44.60;;;;;;5029179;28;20029;-54
2023/09/19 12:10:48;;;;;;;4.05;0.93;;;26.30;44.50;;;;;;5021164;28;20048;-53
2023/09/19 12:13:21;;;;;;;2.83;1.08;;;26.30;44.40;;;;;;5030381;28;20109;-56
2023/09/19 12:15:47;;;;;;;3.47;1.27;;;26.30;44.30;;;;;;5023201;28;20030;-52
2023/09/19 12:18:29;;;;;;;2.20;0.93;;;26.40;44.30;;;;;;5029535;28;20029;-54
2023/09/19 12:20:57;;;;;;;2.05;0.98;;;26.40;44.20;;;;;;5040105;28;20033;-51
2023/09/19 12:23:25;;;;;;;3.55;1.00;;;26.40;44.10;;;;;;5041921;28;20033;-54
2023/09/19 12:25:53;;;;;;;2.10;0.75;;;26.40;44.00;;;;;;5012800;28;20029;-48
2023/09/19 12:28:22;;;;;;;2.30;0.90;;;26.40;44.00;;;;;;5036816;28;20125;-52
2023/09/19 12:30:48;;;;;;;1.88;1.00;;;26.40;43.90;;;;;;5027381;28;20026;-52
2023/09/19 12:33:21;;;;;;;3.10;1.10;;;26.50;44.00;;;;;;5043765;28;20033;-50
2023/09/19 12:35:47;;;;;;;2.05;0.80;;;26.50;43.80;;;;;;5033038;28;20129;-57
2023/09/19 12:38:28;;;;;;;2.70;0.80;;;26.40;43.60;;;;;;5018845;28;20131;-54
2023/09/19 12:41:01;;;;;;;5.75;1.13;;;26.50;43.70;;;;;;5029853;28;20404;-52
2023/09/19 12:43:39;;;;;;;1.67;0.77;;;26.50;43.60;;;;;;5040478;28;20120;-53
2023/09/19 12:46:05;;;;;;;2.30;0.95;;;26.50;43.60;;;;;;5038477;28;20398;-50
2023/09/19 12:48:33;;;;;;;2.28;0.90;;;26.40;43.60;;;;;;5025449;28;20052;-51
2023/09/19 12:51:12;;;;;;;21.20;1.05;;;26.40;43.70;;;;;;5036278;28;20041;-55
2023/09/19 12:53:48;;;;;;;1.05;0.57;;;26.50;43.80;;;;;;5033446;28;20360;-50
2023/09/19 12:56:16;;;;;;;1.75;0.70;;;26.40;43.80;;;;;;5040061;28;20018;-56
2023/09/19 12:58:56;;;;;;;1.17;0.63;;;26.40;43.80;;;;;;5035842;28;20045;-54
2023/09/19 13:01:27;;;;;;;1.65;0.80;;;26.40;43.70;;;;;;5019931;28;20103;-57
2023/09/19 13:04:18;;;;;;;1.63;0.73;;;26.40;43.70;;;;;;5030530;28;20037;-55
2023/09/19 13:06:48;;;;;;;1.45;0.68;;;26.40;43.60;;;;;;5028709;28;20080;-53
2023/09/19 13:09:15;;;;;;;2.28;0.75;;;26.40;43.60;;;;;;5007588;28;20036;-53
2023/09/19 13:11:44;;;;;;;2.58;0.73;;;26.40;43.60;;;;;;5026304;28;20031;-54